Time;durP1;ratioP1;P1;durP2;ratioP2;P2;SDS_P1;SDS_P2;PMS_P1;PMS_P2;Temp;Humidity;BMP_temperature;BMP_pressure;BME280_temperature;BME280_humidity;BME280_pressure;Samples;Min_cycle;Max_cycle;Signal;HPM_P1;HPM_P2
2023/05/21 00:02:28;;;;;;;20.17;15.80;;;12.50;1.00;13.00;93826.00;;;;7397411;19;20172;-75
2023/05/21 00:04:56;;;;;;;19.27;16.23;;;12.50;99.90;13.10;93827.00;;;;7402431;19;20216;-74
2023/05/21 00:07:37;;;;;;;22.48;15.63;;;12.50;1.00;13.00;93829.00;;;;7399506;19;20622;-76
2023/05/21 00:10:11;;;;;;;24.13;16.90;;;12.50;1.00;13.00;93806.00;;;;7401042;19;20468;-74
2023/05/21 00:12:44;;;;;;;20.83;17.13;;;12.50;1.00;13.00;93831.00;;;;7401750;19;20606;-74
2023/05/21 00:15:18;;;;;;;27.58;17.40;;;12.50;1.00;13.00;93801.00;;;;7401540;19;20203;-76
2023/05/21 00:17:52;;;;;;;23.65;16.88;;;12.50;1.00;13.00;93817.00;;;;7403803;19;20144;-76
2023/05/21 00:20:20;;;;;;;22.17;17.05;;;12.40;12.80;13.10;93814.00;;;;7401237;19;20145;-76
2023/05/21 00:22:55;;;;;;;21.90;16.95;;;12.30;99.90;13.20;93808.00;;;;7401582;19;20129;-75
2023/05/21 00:25:30;;;;;;;23.42;18.38;;;12.30;99.90;13.00;93791.00;;;;7400901;19;20620;-74
2023/05/21 00:28:04;;;;;;;21.38;17.23;;;12.30;99.90;13.10;93812.00;;;;7400375;19;20531;-74
2023/05/21 00:30:31;;;;;;;20.67;17.38;;;12.30;1.00;13.00;93812.00;;;;7401055;19;20168;-76
2023/05/21 00:33:04;;;;;;;22.25;16.77;;;12.30;99.90;13.00;93819.00;;;;7399882;19;20125;-76
2023/05/21 00:35:31;;;;;;;22.92;17.65;;;12.20;99.90;12.90;93748.00;;;;7402982;19;20468;-77
2023/05/21 00:38:06;;;;;;;21.52;16.40;;;12.20;99.90;12.90;93774.00;;;;7400204;19;20158;-75
2023/05/21 00:40:40;;;;;;;20.35;17.50;;;12.20;99.90;12.90;93802.00;;;;7402406;19;20136;-75
2023/05/21 00:43:13;;;;;;;21.13;17.25;;;12.10;1.00;12.90;93793.00;;;;7399396;19;20508;-76
2023/05/21 00:45:47;;;;;;;22.55;18.33;;;12.10;1.00;12.80;93767.00;;;;7400837;19;20542;-76
2023/05/21 00:48:14;;;;;;;22.52;18.05;;;12.10;1.00;12.80;93770.00;;;;7398398;19;20140;-76
2023/05/21 00:50:49;;;;;;;24.40;18.63;;;12.20;1.00;12.80;93745.00;;;;7401494;19;20201;-76
2023/05/21 00:53:18;;;;;;;25.08;18.73;;;12.20;1.00;12.80;93782.00;;;;7400140;19;20133;-74
2023/05/21 00:55:51;;;;;;;23.13;17.13;;;12.20;1.00;12.90;93763.00;;;;7400729;19;20164;-75
2023/05/21 00:58:19;;;;;;;22.73;18.75;;;12.30;1.00;12.90;93791.00;;;;7400396;19;20687;-74
2023/05/21 01:00:55;;;;;;;22.70;18.08;;;12.30;1.00;12.70;93761.00;;;;7398486;19;20177;-76
2023/05/21 01:03:22;;;;;;;24.05;18.17;;;12.30;1.00;12.70;93785.00;;;;7401394;19;20121;-74
2023/05/21 01:05:52;;;;;;;22.48;18.42;;;12.20;1.00;12.70;93779.00;;;;7398794;19;20125;-74
2023/05/21 01:08:33;;;;;;;21.55;18.05;;;12.20;1.00;12.60;93773.00;;;;7396088;19;20176;-75
2023/05/21 01:11:09;;;;;;;21.05;18.40;;;12.20;1.00;12.60;93778.00;;;;7399826;19;20600;-77
2023/05/21 01:13:45;;;;;;;27.38;18.67;;;12.20;1.00;12.60;93781.00;;;;7399545;19;20136;-76
2023/05/21 01:16:20;;;;;;;22.08;17.00;;;12.10;1.00;12.60;93783.00;;;;7398644;19;20137;-74
2023/05/21 01:18:53;;;;;;;26.40;20.17;;;12.10;1.00;12.60;93770.00;;;;7400632;19;20451;-78
2023/05/21 01:21:29;;;;;;;24.92;18.30;;;12.00;1.00;12.50;93775.00;;;;7402788;19;20121;-76
2023/05/21 01:24:07;;;;;;;23.50;19.13;;;12.10;1.00;12.60;93753.00;;;;7401145;19;20153;-73
2023/05/21 01:26:37;;;;;;;24.27;19.02;;;12.10;1.00;12.60;93770.00;;;;7399071;19;20140;-75
2023/05/21 01:29:13;;;;;;;25.95;18.73;;;12.10;49.50;12.60;93771.00;;;;7400470;19;20136;-75
2023/05/21 01:32:21;;;;;;;26.23;20.00;;;12.00;80.60;12.60;93768.00;;;;7400183;19;20138;-76
2023/05/21 01:35:14;;;;;;;24.25;18.75;;;12.00;99.90;12.50;93772.00;;;;7395855;19;20152;-76
2023/05/21 01:37:56;;;;;;;23.85;18.52;;;12.00;99.90;12.50;93749.00;;;;7398452;19;20492;-76
2023/05/21 01:41:03;;;;;;;22.65;18.20;;;11.90;99.90;12.40;93725.00;;;;7400166;19;20154;-76
2023/05/21 01:43:40;;;;;;;26.98;18.92;;;11.90;99.90;12.50;93763.00;;;;7397692;19;20145;-72
2023/05/21 01:46:20;;;;;;;26.33;18.38;;;11.90;99.90;12.50;93760.00;;;;7399023;19;20129;-74
2023/05/21 01:48:56;;;;;;;24.63;19.30;;;11.90;99.90;12.50;93733.00;;;;7399324;19;20117;-76
2023/05/21 01:51:29;;;;;;;24.90;19.45;;;11.80;99.90;12.50;93708.00;;;;7399717;19;20144;-75
2023/05/21 01:53:57;;;;;;;25.50;19.80;;;11.80;1.00;12.40;93735.00;;;;7399518;19;20533;-77
2023/05/21 01:56:24;;;;;;;24.25;19.65;;;11.80;10.70;12.40;93729.00;;;;7395029;19;20145;-76
2023/05/21 01:58:59;;;;;;;27.75;19.80;;;11.80;1.00;12.40;93757.00;;;;7396842;19;20145;-76
2023/05/21 02:01:33;;;;;;;27.90;20.20;;;11.70;1.00;12.40;93744.00;;;;7396608;19;20208;-75
2023/05/21 02:04:00;;;;;;;22.83;18.60;;;11.70;1.00;12.50;93751.00;;;;7397333;19;20152;-74
2023/05/21 02:06:35;;;;;;;24.13;19.52;;;11.70;99.90;12.40;93739.00;;;;7398590;19;20132;-74
2023/05/21 02:09:16;;;;;;;23.33;18.98;;;11.70;99.90;12.30;93714.00;;;;7397198;19;20147;-77
2023/05/21 02:11:49;;;;;;;25.13;18.85;;;11.60;99.90;12.40;93740.00;;;;7396949;19;20455;-75
2023/05/21 02:14:24;;;;;;;23.35;18.92;;;11.60;99.90;12.40;93735.00;;;;7398117;19;20139;-76
2023/05/21 02:16:58;;;;;;;29.52;18.90;;;11.50;99.90;12.40;93730.00;;;;7398609;19;20150;-76
2023/05/21 02:19:26;;;;;;;26.80;18.60;;;11.50;99.90;12.40;93716.00;;;;7396562;19;20161;-74
2023/05/21 02:21:59;;;;;;;28.85;20.63;;;11.50;99.90;12.40;93716.00;;;;7398100;19;20504;-74
2023/05/21 02:24:33;;;;;;;28.77;19.67;;;11.50;1.00;12.50;93712.00;;;;7393765;19;20121;-78
2023/05/21 02:27:09;;;;;;;21.73;19.10;;;11.50;1.00;12.50;93724.00;;;;7399824;19;20192;-80
2023/05/21 02:29:36;;;;;;;26.88;21.70;;;11.50;18.60;12.50;93708.00;;;;7399330;19;20620;-74
2023/05/21 02:32:10;;;;;;;29.17;19.67;;;11.50;1.00;12.40;93727.00;;;;7397350;19;20209;-75
2023/05/21 02:34:46;;;;;;;27.60;20.52;;;11.40;1.00;12.40;93654.00;;;;7398554;19;20128;-76
2023/05/21 02:37:13;;;;;;;25.05;19.90;;;11.50;1.00;12.40;93730.00;;;;7397043;19;20183;-73
2023/05/21 02:39:46;;;;;;;25.45;18.38;;;11.50;1.00;12.40;93724.00;;;;7394418;19;20156;-74
2023/05/21 02:42:13;;;;;;;26.95;20.48;;;11.40;1.00;12.40;93701.00;;;;7395891;19;20129;-74
2023/05/21 02:44:48;;;;;;;25.60;20.60;;;11.40;1.00;12.40;93719.00;;;;7395687;19;20144;-73
2023/05/21 02:47:16;;;;;;;26.13;19.75;;;11.40;1.00;12.40;93725.00;;;;7394082;19;20156;-74
2023/05/21 02:49:51;;;;;;;26.55;20.58;;;11.40;1.00;12.30;93714.00;;;;7395890;19;20371;-74
2023/05/21 02:52:22;;;;;;;25.33;19.55;;;11.50;28.00;12.50;93732.00;;;;7396088;19;20208;-72
2023/05/21 02:54:56;;;;;;;26.98;21.02;;;11.50;45.50;12.50;93731.00;;;;7392768;19;20208;-74
2023/05/21 02:57:23;;;;;;;28.52;21.45;;;11.50;19.00;12.40;93729.00;;;;7393369;19;20169;-73
2023/05/21 02:59:57;;;;;;;24.90;21.00;;;11.50;28.20;12.40;93706.00;;;;7393297;19;20152;-74
2023/05/21 03:02:24;;;;;;;25.33;21.35;;;11.60;42.00;12.50;93685.00;;;;7392844;19;20244;-72
2023/05/21 03:04:59;;;;;;;29.23;22.00;;;11.60;65.10;12.50;93720.00;;;;7395204;19;20129;-74
2023/05/21 03:07:33;;;;;;;25.50;20.52;;;11.60;1.00;12.40;93724.00;;;;7394908;19;20153;-74
2023/05/21 03:10:08;;;;;;;26.48;21.02;;;11.70;1.00;12.40;93729.00;;;;7396035;19;20152;-73
2023/05/21 03:12:35;;;;;;;28.98;21.85;;;11.70;1.00;12.50;93728.00;;;;7395910;19;20187;-75
2023/05/21 03:15:09;;;;;;;28.05;21.15;;;11.70;1.00;12.40;93729.00;;;;7396401;19;20576;-72
2023/05/21 03:17:43;;;;;;;31.27;23.38;;;11.60;1.00;12.60;93706.00;;;;7395680;19;20128;-75
2023/05/21 03:20:17;;;;;;;28.13;20.60;;;11.50;1.00;12.50;93687.00;;;;7395906;19;20128;-73
2023/05/21 03:22:51;;;;;;;29.02;20.83;;;11.60;1.00;12.40;93713.00;;;;7395195;19;20539;-73
2023/05/21 03:25:18;;;;;;;28.58;21.70;;;11.60;99.90;12.30;93704.00;;;;7396055;19;20140;-72
2023/05/21 03:27:52;;;;;;;30.30;21.27;;;11.60;1.00;12.40;93678.00;;;;7395704;19;20145;-75
2023/05/21 03:30:26;;;;;;;28.30;21.77;;;11.60;1.00;12.40;93718.00;;;;7397417;19;20138;-74
2023/05/21 03:32:55;;;;;;;30.48;22.17;;;11.60;1.00;12.30;93718.00;;;;7394387;19;20179;-74
2023/05/21 03:35:22;;;;;;;25.77;21.30;;;11.60;1.00;12.30;93708.00;;;;7394863;19;20156;-74
2023/05/21 03:37:55;;;;;;;30.58;20.58;;;11.50;1.00;12.30;93720.00;;;;7395975;19;20523;-72
2023/05/21 03:40:22;;;;;;;29.92;21.60;;;11.50;1.00;12.30;93697.00;;;;7394340;19;20144;-72
2023/05/21 03:42:56;;;;;;;29.20;20.80;;;11.50;7.00;12.30;93713.00;;;;7394214;19;20152;-75
2023/05/21 03:45:23;;;;;;;27.00;19.75;;;11.50;1.00;12.40;93676.00;;;;7395995;19;20117;-73
2023/05/21 03:47:50;;;;;;;24.90;19.98;;;11.50;99.90;12.30;93721.00;;;;7392325;19;20157;-74
2023/05/21 03:50:24;;;;;;;28.83;21.45;;;11.40;1.00;12.30;93719.00;;;;7396317;19;20499;-73
2023/05/21 03:52:58;;;;;;;31.30;20.60;;;11.40;1.00;12.30;93724.00;;;;7396186;19;20128;-74
2023/05/21 03:55:32;;;;;;;25.42;20.05;;;11.40;13.10;12.30;93717.00;;;;7395891;19;20612;-74
2023/05/21 03:58:12;;;;;;;28.48;20.88;;;11.30;49.30;12.30;93685.00;;;;7395522;19;20473;-74
2023/05/21 04:00:47;;;;;;;27.02;19.98;;;11.40;99.90;12.30;93702.00;;;;7393937;19;20208;-73
2023/05/21 04:03:14;;;;;;;29.10;21.10;;;11.40;99.90;12.20;93709.00;;;;7394135;19;20208;-73
2023/05/21 04:05:42;;;;;;;23.73;19.20;;;11.30;99.90;12.30;93689.00;;;;7393474;19;20971;-73
2023/05/21 04:08:22;;;;;;;29.67;21.40;;;11.30;99.90;12.40;93718.00;;;;7392107;19;20176;-74
2023/05/21 04:10:49;;;;;;;25.55;19.95;;;11.30;99.90;12.40;93689.00;;;;7394046;19;20148;-74
2023/05/21 04:13:22;;;;;;;28.85;20.95;;;11.30;99.90;12.40;93709.00;;;;7399967;19;20152;-74
2023/05/21 04:15:49;;;;;;;30.27;20.95;;;11.40;99.90;12.40;93683.00;;;;7401276;19;20121;-74
2023/05/21 04:18:24;;;;;;;25.77;20.05;;;11.40;99.90;12.40;93724.00;;;;7401816;19;20615;-73
2023/05/21 04:20:52;;;;;;;23.60;19.05;;;11.50;99.90;12.50;93714.00;;;;7397599;19;20132;-74
2023/05/21 04:23:27;;;;;;;25.17;19.67;;;11.50;99.90;12.60;93706.00;;;;7402230;19;20183;-74
2023/05/21 04:26:00;;;;;;;24.92;19.45;;;11.60;99.90;12.80;93736.00;;;;7402295;19;20144;-73
2023/05/21 04:28:35;;;;;;;25.50;20.23;;;11.60;1.00;12.80;93717.00;;;;7403284;19;20136;-73
2023/05/21 04:31:12;;;;;;;24.55;19.50;;;11.70;99.90;12.90;93731.00;;;;7401689;19;20615;-73
2023/05/21 04:33:41;;;;;;;25.10;19.80;;;11.80;99.90;12.90;93709.00;;;;7399498;19;20173;-74
2023/05/21 04:36:16;;;;;;;21.38;18.77;;;11.80;99.90;13.00;93724.00;;;;7401099;19;20156;-74
2023/05/21 04:38:43;;;;;;;22.65;18.77;;;11.90;79.30;13.10;93728.00;;;;7400363;19;20576;-75
2023/05/21 04:41:17;;;;;;;22.08;17.77;;;12.00;33.90;13.10;93720.00;;;;7398164;19;20171;-72
2023/05/21 04:43:44;;;;;;;23.70;18.33;;;12.10;1.00;13.20;93731.00;;;;7400271;19;20196;-74
2023/05/21 04:46:18;;;;;;;25.80;18.42;;;12.20;1.00;13.40;93732.00;;;;7400517;19;20120;-76
2023/05/21 04:48:56;;;;;;;22.33;18.60;;;12.30;1.00;13.60;93720.00;;;;7401172;19;20144;-74
2023/05/21 04:51:30;;;;;;;23.55;18.92;;;12.30;1.00;13.70;93733.00;;;;7400082;19;20148;-75
2023/05/21 04:54:05;;;;;;;21.15;17.92;;;12.50;1.00;13.80;93721.00;;;;7400572;19;20157;-75
2023/05/21 04:56:32;;;;;;;22.60;16.75;;;12.60;99.90;14.00;93715.00;;;;7400111;19;20149;-74
2023/05/21 04:59:05;;;;;;;19.10;16.85;;;12.80;99.90;14.20;93720.00;;;;7400705;19;20188;-74
2023/05/21 05:01:34;;;;;;;24.00;17.33;;;12.90;99.90;14.20;93738.00;;;;7399689;19;20185;-74
2023/05/21 05:04:08;;;;;;;22.25;16.80;;;13.00;1.00;14.50;93713.00;;;;7399577;19;20147;-72
2023/05/21 05:06:35;;;;;;;20.20;18.00;;;13.10;1.00;14.50;93713.00;;;;7399940;19;20616;-73
2023/05/21 05:09:16;;;;;;;21.65;17.30;;;13.30;1.00;14.80;93741.00;;;;7399230;19;20152;-74
2023/05/21 05:11:50;;;;;;;18.73;16.10;;;13.40;1.00;14.90;93713.00;;;;7400499;19;20261;-74
2023/05/21 05:14:18;;;;;;;22.08;17.45;;;13.60;99.90;15.00;93746.00;;;;7400534;19;20640;-74
2023/05/21 05:16:53;;;;;;;22.38;17.20;;;13.70;99.90;15.00;93744.00;;;;7400561;19;20145;-74
2023/05/21 05:19:20;;;;;;;22.77;17.25;;;13.80;1.00;15.20;93733.00;;;;7398809;19;20620;-73
2023/05/21 05:21:55;;;;;;;22.70;16.50;;;14.00;1.00;15.30;93716.00;;;;7399865;19;20148;-74
2023/05/21 05:24:29;;;;;;;20.45;16.33;;;14.10;1.00;15.40;93730.00;;;;7396892;19;20137;-73
2023/05/21 05:27:03;;;;;;;17.67;15.73;;;14.20;99.90;15.30;93714.00;;;;7400387;19;20133;-75
2023/05/21 05:29:36;;;;;;;19.05;15.23;;;14.30;1.00;15.50;93725.00;;;;7400447;19;20490;-72
2023/05/21 05:32:10;;;;;;;17.05;15.25;;;14.40;1.00;15.60;93722.00;;;;7399794;19;20647;-74
2023/05/21 05:34:45;;;;;;;18.65;15.73;;;14.50;99.90;16.00;93738.00;;;;7401272;19;20510;-74
2023/05/21 05:37:13;;;;;;;17.85;15.15;;;14.60;99.90;16.00;93741.00;;;;7398248;19;20691;-72
2023/05/21 05:39:40;;;;;;;18.58;15.07;;;14.70;99.90;16.00;93723.00;;;;7398453;19;20145;-72
2023/05/21 05:42:14;;;;;;;18.83;14.40;;;14.90;99.90;16.40;93700.00;;;;7401210;19;20143;-75
2023/05/21 05:44:42;;;;;;;19.67;14.70;;;15.00;87.10;16.50;93715.00;;;;7399072;19;20617;-73
2023/05/21 05:47:16;;;;;;;17.10;14.98;;;15.20;66.80;16.70;93724.00;;;;7399848;19;20629;-73
2023/05/21 05:49:43;;;;;;;21.17;14.68;;;15.40;1.00;16.90;93699.00;;;;7396734;19;20529;-74
2023/05/21 05:52:18;;;;;;;20.92;14.02;;;15.40;99.90;16.90;93724.00;;;;7396811;19;20132;-74
2023/05/21 05:54:45;;;;;;;18.10;13.55;;;15.50;99.90;16.70;93734.00;;;;7397734;19;20152;-73
2023/05/21 05:57:19;;;;;;;15.18;13.00;;;15.60;99.90;17.00;93736.00;;;;7385779;19;20147;-73
2023/05/21 05:59:53;;;;;;;15.75;13.85;;;15.80;99.90;17.20;93699.00;;;;7394635;19;20147;-73
2023/05/21 06:02:27;;;;;;;15.23;13.40;;;16.00;99.90;17.50;93699.00;;;;7388599;19;20608;-74
2023/05/21 06:04:55;;;;;;;15.10;13.50;;;16.20;99.90;17.50;93728.00;;;;7387874;19;20152;-74
2023/05/21 06:07:28;;;;;;;16.98;13.27;;;16.40;99.90;18.00;93735.00;;;;7391950;19;20162;-72
2023/05/21 06:10:07;;;;;;;16.73;12.57;;;16.60;1.00;18.20;93717.00;;;;7396636;19;20153;-72
2023/05/21 06:12:41;;;;;;;18.35;12.45;;;16.80;1.00;18.20;93736.00;;;;7396498;19;20189;-72
2023/05/21 06:15:15;;;;;;;14.93;12.75;;;17.10;99.90;18.40;93725.00;;;;7397721;19;20172;-72
2023/05/21 06:17:49;;;;;;;15.20;11.75;;;17.20;1.00;18.30;93713.00;;;;7392592;19;20148;-74
2023/05/21 06:20:16;;;;;;;16.35;12.48;;;17.30;99.90;18.30;93731.00;;;;7396001;19;20652;-73
2023/05/21 06:22:50;;;;;;;15.52;13.23;;;17.40;99.90;18.70;93740.00;;;;7396164;19;20500;-71
2023/05/21 06:25:17;;;;;;;14.05;12.63;;;17.40;99.90;18.90;93705.00;;;;7389831;19;20148;-73
2023/05/21 06:27:51;;;;;;;15.73;11.40;;;17.60;1.00;19.10;93708.00;;;;7395094;19;20611;-74
2023/05/21 06:30:19;;;;;;;13.05;11.55;;;17.70;1.00;19.00;93730.00;;;;7397652;19;20162;-73
2023/05/21 06:32:52;;;;;;;12.68;11.38;;;17.90;99.90;19.40;93719.00;;;;7395644;19;20140;-73
2023/05/21 06:35:20;;;;;;;16.45;12.25;;;18.00;99.90;19.40;93712.00;;;;7397722;19;20142;-73
2023/05/21 06:37:56;;;;;;;14.05;11.82;;;18.20;1.00;19.70;93714.00;;;;7395115;19;20582;-73
2023/05/21 06:40:23;;;;;;;12.55;11.25;;;18.40;1.00;19.70;93731.00;;;;7389917;19;20125;-79
2023/05/21 06:42:58;;;;;;;13.07;11.57;;;18.60;99.90;20.70;93724.00;;;;7395748;19;20129;-76
2023/05/21 06:45:25;;;;;;;14.60;11.57;;;18.90;99.90;20.70;93721.00;;;;7398123;19;20129;-73
2023/05/21 06:47:59;;;;;;;12.15;10.48;;;19.00;99.90;21.10;93703.00;;;;7394778;19;20153;-73
2023/05/21 06:50:33;;;;;;;12.77;11.48;;;19.10;99.90;21.10;93723.00;;;;7391094;19;20156;-74
2023/05/21 06:53:08;;;;;;;11.80;10.45;;;19.40;1.00;21.40;93719.00;;;;7387095;19;20143;-75
2023/05/21 06:55:44;;;;;;;12.25;10.95;;;19.70;1.00;21.80;93712.00;;;;7388349;19;20572;-74
2023/05/21 06:58:18;;;;;;;11.85;10.65;;;19.80;1.00;21.60;93715.00;;;;7391993;19;20583;-74
2023/05/21 07:00:46;;;;;;;13.82;11.02;;;19.90;1.00;21.60;93723.00;;;;7389225;19;20536;-73
2023/05/21 07:03:19;;;;;;;13.50;12.07;;;20.00;1.00;21.90;93724.00;;;;7392401;19;20954;-74
2023/05/21 07:05:47;;;;;;;13.00;10.88;;;20.10;1.00;22.00;93728.00;;;;7390872;19;20235;-74
2023/05/21 07:08:27;;;;;;;12.82;9.82;;;20.30;1.00;21.90;93722.00;;;;7388312;19;20172;-73
2023/05/21 07:10:55;;;;;;;11.27;9.93;;;20.50;1.00;22.60;93723.00;;;;7390742;19;20131;-73
2023/05/21 07:13:29;;;;;;;11.75;10.20;;;20.90;1.00;23.00;93713.00;;;;7388408;19;20144;-72
2023/05/21 07:15:56;;;;;;;11.35;9.77;;;21.10;1.00;23.00;93693.00;;;;7389577;19;20166;-74
2023/05/21 07:18:23;;;;;;;11.45;10.25;;;21.20;1.00;23.30;93722.00;;;;7391762;19;20212;-74
2023/05/21 07:20:59;;;;;;;13.05;9.95;;;21.40;1.00;22.80;93713.00;;;;7390547;19;20596;-73
2023/05/21 07:23:32;;;;;;;11.00;9.85;;;21.50;1.00;23.10;93728.00;;;;7390590;19;20635;-72
2023/05/21 07:26:09;;;;;;;11.95;9.68;;;21.60;1.00;23.00;93705.00;;;;7390330;19;20161;-72
2023/05/21 07:28:37;;;;;;;11.15;9.95;;;21.80;1.00;23.50;93683.00;;;;7388767;19;20484;-73
2023/05/21 07:31:11;;;;;;;11.50;10.40;;;21.70;8.70;23.50;93728.00;;;;7389156;19;20607;-74
2023/05/21 07:33:39;;;;;;;10.57;9.27;;;21.90;1.00;22.30;93734.00;;;;7392091;19;20591;-73
2023/05/21 07:36:06;;;;;;;10.70;9.60;;;21.70;1.00;22.30;93746.00;;;;7390200;19;20145;-72
2023/05/21 07:38:39;;;;;;;11.80;10.15;;;21.50;1.00;22.00;93717.00;;;;7390442;19;20145;-72
2023/05/21 07:41:15;;;;;;;13.50;10.13;;;21.40;1.00;21.30;93743.00;;;;7389827;19;20454;-72
2023/05/21 07:43:50;;;;;;;12.48;10.60;;;21.20;1.00;22.10;93735.00;;;;7391005;19;20128;-73
2023/05/21 07:46:23;;;;;;;11.40;10.25;;;21.10;1.00;22.50;93737.00;;;;7390483;19;20140;-71
2023/05/21 07:48:57;;;;;;;11.30;10.13;;;20.90;1.00;22.10;93734.00;;;;7398008;19;20148;-74
2023/05/21 07:51:32;;;;;;;10.48;9.43;;;21.00;1.00;22.30;93742.00;;;;7394973;19;20156;-72
2023/05/21 07:54:13;;;;;;;11.88;10.45;;;20.90;1.00;22.00;93736.00;;;;7394760;19;20132;-73
2023/05/21 07:56:46;;;;;;;16.23;10.95;;;20.90;1.00;21.90;93698.00;;;;7396088;19;20213;-71
2023/05/21 07:59:24;;;;;;;12.85;11.00;;;20.60;1.00;21.50;93750.00;;;;7398462;19;20196;-72
2023/05/21 08:01:59;;;;;;;12.50;10.00;;;20.50;1.00;21.30;93715.00;;;;7392267;19;20201;-73
2023/05/21 08:04:26;;;;;;;11.00;9.93;;;20.40;1.00;21.10;93753.00;;;;7396387;19;20207;-71
2023/05/21 08:07:11;;;;;;;11.40;9.63;;;20.20;1.00;21.10;93728.00;;;;7394431;19;20224;-73
2023/05/21 08:09:45;;;;;;;13.23;11.02;;;20.10;1.00;20.90;93755.00;;;;7396204;19;20602;-74
2023/05/21 08:12:23;;;;;;;12.07;10.65;;;20.00;4.10;21.00;93749.00;;;;7392645;19;20619;-72
2023/05/21 08:14:50;;;;;;;12.65;11.13;;;19.90;1.00;20.80;93709.00;;;;7393766;19;20137;-74
2023/05/21 08:17:24;;;;;;;13.93;10.13;;;19.90;1.00;20.70;93731.00;;;;7395194;19;20231;-73
2023/05/21 08:19:53;;;;;;;12.48;10.02;;;19.80;1.70;20.60;93725.00;;;;7395310;19;20160;-72
2023/05/21 08:22:27;;;;;;;11.55;10.45;;;19.80;33.20;20.90;93742.00;;;;7392860;19;20890;-73
2023/05/21 08:25:03;;;;;;;12.55;11.10;;;19.80;16.50;20.90;93711.00;;;;7396064;19;20144;-73
2023/05/21 08:27:37;;;;;;;11.93;10.73;;;19.80;57.80;20.80;93744.00;;;;7395204;19;20144;-72
2023/05/21 08:30:11;;;;;;;12.40;11.10;;;19.80;45.70;21.00;93747.00;;;;7394573;19;20141;-74
2023/05/21 08:32:44;;;;;;;12.98;11.05;;;19.90;42.70;21.30;93744.00;;;;7395004;19;20140;-73
2023/05/21 08:35:21;;;;;;;12.18;10.85;;;20.10;9.40;21.50;93736.00;;;;7395731;19;20128;-73
2023/05/21 08:37:48;;;;;;;12.90;10.18;;;20.30;15.00;21.30;93750.00;;;;7396990;19;20217;-73
2023/05/21 08:40:22;;;;;;;13.90;11.02;;;20.40;22.90;21.30;93729.00;;;;7393067;19;20498;-74
2023/05/21 08:42:50;;;;;;;10.48;9.30;;;20.40;1.00;20.90;93750.00;;;;7392299;19;20133;-73
2023/05/21 08:45:26;;;;;;;11.02;9.85;;;20.40;1.00;21.40;93750.00;;;;7394142;19;20156;-72
2023/05/21 08:47:56;;;;;;;11.43;10.07;;;20.40;1.00;21.50;93752.00;;;;7393274;19;20604;-72
2023/05/21 08:50:31;;;;;;;12.73;11.20;;;20.30;1.00;20.70;93730.00;;;;7392943;19;20156;-74
2023/05/21 08:53:00;;;;;;;12.30;10.60;;;20.30;1.00;21.10;93750.00;;;;7393135;19;20156;-72
2023/05/21 08:55:56;;;;;;;12.02;10.82;;;20.40;32.80;21.40;93726.00;;;;7392439;19;20181;-72
2023/05/21 08:58:32;;;;;;;12.00;10.73;;;20.30;36.40;21.60;93748.00;;;;7396796;19;20128;-72
2023/05/21 09:01:06;;;;;;;13.05;10.88;;;20.40;58.80;21.50;93749.00;;;;7390693;19;20152;-72
2023/05/21 09:03:42;;;;;;;14.50;11.57;;;20.30;67.90;21.40;93759.00;;;;7387092;19;20153;-73
2023/05/21 09:06:15;;;;;;;14.68;11.30;;;20.30;75.20;21.40;93755.00;;;;7394185;19;20156;-72
2023/05/21 09:09:08;;;;;;;14.25;11.32;;;20.20;51.70;21.50;93761.00;;;;7391621;19;20145;-71
2023/05/21 09:11:42;;;;;;;11.75;10.55;;;20.30;99.90;21.80;93765.00;;;;7393645;19;20608;-71
2023/05/21 09:14:17;;;;;;;12.45;11.15;;;20.30;49.80;21.60;93762.00;;;;7393109;19;20156;-73
2023/05/21 09:16:47;;;;;;;15.20;11.00;;;20.40;99.90;21.70;93763.00;;;;7389526;19;20140;-72
2023/05/21 09:19:21;;;;;;;12.18;11.00;;;20.50;89.00;22.00;93768.00;;;;7390038;19;20197;-73
2023/05/21 09:21:51;;;;;;;12.55;11.25;;;20.80;99.90;22.00;93767.00;;;;7387740;19;20129;-72
2023/05/21 09:24:30;;;;;;;14.07;11.32;;;20.80;99.90;21.80;93759.00;;;;7391656;19;20599;-73
2023/05/21 09:27:06;;;;;;;12.48;11.00;;;21.00;99.90;21.80;93775.00;;;;7392232;19;20137;-72
2023/05/21 09:29:41;;;;;;;12.95;11.57;;;21.00;99.90;21.90;93761.00;;;;7392053;19;20173;-71
2023/05/21 09:32:09;;;;;;;12.77;10.70;;;21.10;99.90;22.10;93760.00;;;;7380929;19;20152;-72
2023/05/21 09:34:43;;;;;;;11.90;10.73;;;21.10;5.50;22.10;93766.00;;;;7389810;19;20514;-72
2023/05/21 09:37:10;;;;;;;12.40;10.98;;;21.00;65.30;22.20;93768.00;;;;7389701;19;20184;-73
2023/05/21 09:39:53;;;;;;;13.15;11.60;;;21.20;24.00;22.70;93770.00;;;;7388044;19;20136;-73
2023/05/21 09:42:21;;;;;;;12.07;10.68;;;21.20;23.10;22.40;93770.00;;;;7385704;19;20655;-73
2023/05/21 09:44:56;;;;;;;12.40;11.20;;;21.30;99.90;22.60;93782.00;;;;7388823;19;20154;-73
2023/05/21 09:47:23;;;;;;;12.05;10.02;;;21.40;75.90;22.90;93771.00;;;;7390182;19;20116;-73
2023/05/21 09:49:57;;;;;;;11.13;10.07;;;21.50;32.50;22.80;93768.00;;;;7391801;19;20137;-72
2023/05/21 09:52:35;;;;;;;12.35;10.13;;;21.70;2.40;22.80;93772.00;;;;7388539;19;20612;-73
2023/05/21 09:55:13;;;;;;;11.45;10.30;;;21.80;42.70;23.10;93777.00;;;;7389605;19;20148;-73
2023/05/21 09:57:47;;;;;;;12.02;10.75;;;22.00;92.30;22.40;93734.00;;;;7388899;19;20198;-74
2023/05/21 10:00:27;;;;;;;11.43;9.93;;;22.10;99.90;22.90;93772.00;;;;7390908;19;20137;-75
2023/05/21 10:03:11;;;;;;;11.25;10.15;;;22.10;99.90;23.00;93775.00;;;;7391456;19;20120;-72
2023/05/21 10:05:46;;;;;;;11.85;10.18;;;22.10;99.90;23.10;93765.00;;;;7392810;19;20148;-74
2023/05/21 10:08:26;;;;;;;13.15;9.25;;;22.10;99.90;22.80;93773.00;;;;7384410;19;20187;-74
2023/05/21 10:11:08;;;;;;;12.82;9.77;;;22.10;22.20;23.10;93772.00;;;;7387046;19;20235;-74
2023/05/21 10:13:52;;;;;;;10.82;9.52;;;22.20;77.60;23.10;93767.00;;;;7393431;19;20132;-72
2023/05/21 10:16:29;;;;;;;10.65;9.55;;;22.20;4.10;23.10;93767.00;;;;7388180;19;20136;-75
2023/05/21 10:19:04;;;;;;;12.63;10.55;;;22.20;23.50;23.00;93766.00;;;;7389013;19;20572;-75
2023/05/21 10:21:32;;;;;;;11.05;8.82;;;22.30;78.10;22.60;93780.00;;;;7390394;19;20129;-74
2023/05/21 10:24:03;;;;;;;13.25;8.98;;;22.40;35.00;22.90;93772.00;;;;7381893;19;20132;-74
2023/05/21 10:26:40;;;;;;;12.40;11.13;;;22.40;1.00;23.00;93738.00;;;;7389954;19;20159;-74
2023/05/21 10:29:08;;;;;;;11.98;10.20;;;22.30;12.10;23.00;93774.00;;;;7387470;19;20182;-74
2023/05/21 10:31:48;;;;;;;12.63;10.25;;;22.20;59.60;22.80;93734.00;;;;7388325;19;20529;-73
2023/05/21 10:34:16;;;;;;;10.43;9.43;;;22.10;5.20;22.90;93772.00;;;;7385462;19;20133;-73
2023/05/21 10:36:51;;;;;;;10.68;9.55;;;21.90;16.80;22.80;93756.00;;;;7390395;19;20137;-73
2023/05/21 10:39:26;;;;;;;9.50;8.50;;;22.00;18.70;22.80;93770.00;;;;7388273;19;20567;-74
2023/05/21 10:42:11;;;;;;;11.25;9.90;;;22.00;4.10;22.80;93783.00;;;;7388246;19;20495;-74
2023/05/21 10:45:02;;;;;;;11.35;10.15;;;22.10;23.10;22.90;93773.00;;;;7389360;19;20132;-74
2023/05/21 10:48:07;;;;;;;12.65;9.63;;;22.10;31.20;22.80;93780.00;;;;7391097;19;20153;-73
2023/05/21 10:51:13;;;;;;;13.18;10.73;;;22.00;27.40;22.70;93777.00;;;;7388335;19;20156;-75
2023/05/21 10:54:54;;;;;;;10.65;9.55;;;22.10;46.50;22.90;93782.00;;;;7390100;19;20129;-74
2023/05/21 10:57:48;;;;;;;10.07;9.07;;;22.20;45.70;23.10;93787.00;;;;7391129;19;20133;-75
2023/05/21 11:00:26;;;;;;;12.13;10.93;;;22.50;53.70;22.90;93780.00;;;;7382126;19;20120;-75
2023/05/21 11:02:53;;;;;;;14.35;11.10;;;22.50;68.60;23.20;93777.00;;;;7384723;19;20148;-75
2023/05/21 11:05:49;;;;;;;11.80;10.57;;;22.60;41.50;23.20;93782.00;;;;7387946;19;20697;-74
2023/05/21 11:08:33;;;;;;;12.85;11.23;;;22.80;33.90;23.40;93777.00;;;;7389481;19;20152;-75
2023/05/21 11:11:43;;;;;;;13.45;10.82;;;22.80;17.40;23.40;93783.00;;;;7391959;19;20140;-74
2023/05/21 11:14:35;;;;;;;10.57;9.48;;;22.80;1.00;23.60;93782.00;;;;7388701;19;20153;-75
2023/05/21 11:17:15;;;;;;;11.52;8.90;;;23.00;3.20;23.70;93768.00;;;;7390497;19;20240;-75